sensor_id;sensor_type;location;lat;lon;timestamp;pressure;altitude;pressure_sealevel;temperature;humidity
52625;BME280;38519;52.540;13.410;2023-02-10T00:00:30;102440.97;;;1.03;89.30
52625;BME280;38519;52.540;13.410;2023-02-10T00:02:55;102435.66;;;0.96;89.65
52625;BME280;38519;52.540;13.410;2023-02-10T00:05:20;102443.91;;;0.94;90.82
52625;BME280;38519;52.540;13.410;2023-02-10T00:07:46;102436.69;;;0.91;91.00
52625;BME280;38519;52.540;13.410;2023-02-10T00:10:11;102435.75;;;0.90;90.30
52625;BME280;38519;52.540;13.410;2023-02-10T00:12:36;102431.06;;;0.75;91.74
52625;BME280;38519;52.540;13.410;2023-02-10T00:15:03;102436.50;;;0.71;91.47
52625;BME280;38519;52.540;13.410;2023-02-10T00:17:28;102434.50;;;0.63;91.85
52625;BME280;38519;52.540;13.410;2023-02-10T00:19:53;102436.34;;;0.64;92.61
52625;BME280;38519;52.540;13.410;2023-02-10T00:22:18;102436.78;;;0.67;91.67
52625;BME280;38519;52.540;13.410;2023-02-10T00:24:44;102440.34;;;0.62;92.37
52625;BME280;38519;52.540;13.410;2023-02-10T00:27:09;102437.78;;;0.62;92.35
52625;BME280;38519;52.540;13.410;2023-02-10T00:29:34;102442.97;;;0.56;93.48
52625;BME280;38519;52.540;13.410;2023-02-10T00:31:59;102435.69;;;0.59;92.92
52625;BME280;38519;52.540;13.410;2023-02-10T00:34:25;102442.34;;;0.51;93.54
52625;BME280;38519;52.540;13.410;2023-02-10T00:36:51;102438.34;;;0.53;92.78
52625;BME280;38519;52.540;13.410;2023-02-10T00:39:17;102442.50;;;0.59;93.14
52625;BME280;38519;52.540;13.410;2023-02-10T00:41:42;102446.78;;;0.71;92.08
52625;BME280;38519;52.540;13.410;2023-02-10T00:44:07;102444.66;;;0.74;92.53
52625;BME280;38519;52.540;13.410;2023-02-10T00:46:35;102450.81;;;0.82;92.71
52625;BME280;38519;52.540;13.410;2023-02-10T00:49:00;102451.19;;;0.90;91.48
52625;BME280;38519;52.540;13.410;2023-02-10T00:51:26;102455.53;;;0.97;91.54
52625;BME280;38519;52.540;13.410;2023-02-10T00:53:51;102455.28;;;1.01;91.72
52625;BME280;38519;52.540;13.410;2023-02-10T00:56:18;102457.69;;;0.94;91.82
52625;BME280;38519;52.540;13.410;2023-02-10T00:58:43;102467.69;;;0.98;92.66
52625;BME280;38519;52.540;13.410;2023-02-10T01:01:09;102474.25;;;0.96;93.09
52625;BME280;38519;52.540;13.410;2023-02-10T01:03:34;102472.09;;;0.99;92.65
52625;BME280;38519;52.540;13.410;2023-02-10T01:06:00;102477.69;;;1.02;93.20
52625;BME280;38519;52.540;13.410;2023-02-10T01:08:25;102476.88;;;1.09;92.33
52625;BME280;38519;52.540;13.410;2023-02-10T01:10:58;102472.25;;;1.06;92.86
52625;BME280;38519;52.540;13.410;2023-02-10T01:13:23;102468.50;;;0.92;93.45
52625;BME280;38519;52.540;13.410;2023-02-10T01:15:48;102468.81;;;0.82;94.74
52625;BME280;38519;52.540;13.410;2023-02-10T01:18:14;102465.00;;;0.72;95.39
52625;BME280;38519;52.540;13.410;2023-02-10T01:20:39;102475.69;;;0.57;96.52
52625;BME280;38519;52.540;13.410;2023-02-10T01:23:05;102470.91;;;0.47;98.31
52625;BME280;38519;52.540;13.410;2023-02-10T01:25:32;102476.53;;;0.45;98.53
52625;BME280;38519;52.540;13.410;2023-02-10T01:27:57;102472.13;;;0.44;98.42
52625;BME280;38519;52.540;13.410;2023-02-10T01:30:22;102472.91;;;0.37;99.31
52625;BME280;38519;52.540;13.410;2023-02-10T01:32:51;102477.75;;;0.41;99.31
52625;BME280;38519;52.540;13.410;2023-02-10T01:35:17;102471.03;;;0.36;100.00
52625;BME280;38519;52.540;13.410;2023-02-10T01:37:42;102475.50;;;0.31;100.00
52625;BME280;38519;52.540;13.410;2023-02-10T01:40:07;102470.22;;;0.24;100.00
52625;BME280;38519;52.540;13.410;2023-02-10T01:42:33;102473.72;;;0.25;100.00
52625;BME280;38519;52.540;13.410;2023-02-10T01:47:43;102472.28;;;0.27;100.00
52625;BME280;38519;52.540;13.410;2023-02-10T01:50:09;102472.81;;;0.24;100.00
52625;BME280;38519;52.540;13.410;2023-02-10T01:52:35;102461.88;;;0.20;100.00
52625;BME280;38519;52.540;13.410;2023-02-10T01:55:06;102452.78;;;0.16;100.00
52625;BME280;38519;52.540;13.410;2023-02-10T01:57:32;102448.16;;;0.13;100.00
52625;BME280;38519;52.540;13.410;2023-02-10T01:59:58;102442.84;;;0.06;100.00
52625;BME280;38519;52.540;13.410;2023-02-10T02:02:25;102443.06;;;0.08;100.00
52625;BME280;38519;52.540;13.410;2023-02-10T02:04:54;102458.91;;;0.11;100.00
52625;BME280;38519;52.540;13.410;2023-02-10T02:07:21;102453.50;;;0.15;100.00
52625;BME280;38519;52.540;13.410;2023-02-10T02:09:48;102459.63;;;0.10;100.00
52625;BME280;38519;52.540;13.410;2023-02-10T02:14:58;102464.22;;;0.18;100.00
52625;BME280;38519;52.540;13.410;2023-02-10T02:17:28;102469.84;;;0.15;100.00
52625;BME280;38519;52.540;13.410;2023-02-10T02:33:29;102487.13;;;0.16;100.00
52625;BME280;38519;52.540;13.410;2023-02-10T02:38:58;102485.25;;;0.15;100.00
52625;BME280;38519;52.540;13.410;2023-02-10T02:41:24;102481.00;;;0.22;100.00
52625;BME280;38519;52.540;13.410;2023-02-10T02:43:49;102476.56;;;0.21;100.00
52625;BME280;38519;52.540;13.410;2023-02-10T02:51:36;102487.38;;;0.36;100.00
52625;BME280;38519;52.540;13.410;2023-02-10T03:01:46;102477.84;;;0.30;100.00
52625;BME280;38519;52.540;13.410;2023-02-10T03:04:15;102481.56;;;0.32;100.00
52625;BME280;38519;52.540;13.410;2023-02-10T03:06:40;102481.88;;;0.28;100.00
52625;BME280;38519;52.540;13.410;2023-02-10T03:09:06;102483.66;;;0.34;100.00
52625;BME280;38519;52.540;13.410;2023-02-10T03:11:31;102485.09;;;0.32;100.00
52625;BME280;38519;52.540;13.410;2023-02-10T03:13:56;102488.78;;;0.34;100.00
52625;BME280;38519;52.540;13.410;2023-02-10T03:16:21;102483.66;;;0.34;100.00
52625;BME280;38519;52.540;13.410;2023-02-10T03:18:47;102483.22;;;0.31;100.00
52625;BME280;38519;52.540;13.410;2023-02-10T03:21:12;102492.03;;;0.39;100.00
52625;BME280;38519;52.540;13.410;2023-02-10T03:23:37;102488.53;;;0.39;100.00
52625;BME280;38519;52.540;13.410;2023-02-10T03:26:03;102493.59;;;0.44;100.00
52625;BME280;38519;52.540;13.410;2023-02-10T03:28:28;102489.59;;;0.46;100.00
52625;BME280;38519;52.540;13.410;2023-02-10T03:30:53;102491.25;;;0.46;100.00
52625;BME280;38519;52.540;13.410;2023-02-10T03:33:20;102491.94;;;0.45;100.00
52625;BME280;38519;52.540;13.410;2023-02-10T03:35:46;102490.25;;;0.51;100.00
52625;BME280;38519;52.540;13.410;2023-02-10T03:38:12;102498.81;;;0.57;100.00
52625;BME280;38519;52.540;13.410;2023-02-10T03:40:38;102497.91;;;0.57;100.00
52625;BME280;38519;52.540;13.410;2023-02-10T03:43:04;102495.03;;;0.42;100.00
52625;BME280;38519;52.540;13.410;2023-02-10T03:45:29;102500.53;;;0.51;100.00
52625;BME280;38519;52.540;13.410;2023-02-10T03:47:54;102504.19;;;0.59;100.00
52625;BME280;38519;52.540;13.410;2023-02-10T03:50:20;102509.75;;;0.62;100.00
52625;BME280;38519;52.540;13.410;2023-02-10T03:52:45;102513.75;;;0.60;100.00
52625;BME280;38519;52.540;13.410;2023-02-10T03:55:10;102511.41;;;0.61;100.00
52625;BME280;38519;52.540;13.410;2023-02-10T03:57:39;102518.38;;;0.62;100.00
52625;BME280;38519;52.540;13.410;2023-02-10T04:00:05;102507.31;;;0.69;100.00
52625;BME280;38519;52.540;13.410;2023-02-10T04:02:31;102510.63;;;0.68;100.00
52625;BME280;38519;52.540;13.410;2023-02-10T04:04:56;102505.41;;;0.73;100.00
52625;BME280;38519;52.540;13.410;2023-02-10T04:07:21;102498.25;;;0.65;100.00
52625;BME280;38519;52.540;13.410;2023-02-10T04:09:46;102495.19;;;0.68;100.00
52625;BME280;38519;52.540;13.410;2023-02-10T04:12:12;102498.22;;;0.71;100.00
52625;BME280;38519;52.540;13.410;2023-02-10T04:14:37;102488.19;;;0.67;100.00
52625;BME280;38519;52.540;13.410;2023-02-10T04:17:02;102478.81;;;0.67;100.00
52625;BME280;38519;52.540;13.410;2023-02-10T04:19:27;102481.00;;;0.64;100.00
52625;BME280;38519;52.540;13.410;2023-02-10T04:21:52;102481.22;;;0.66;100.00
52625;BME280;38519;52.540;13.410;2023-02-10T04:24:18;102482.56;;;0.69;100.00
52625;BME280;38519;52.540;13.410;2023-02-10T04:26:43;102496.56;;;0.71;100.00
52625;BME280;38519;52.540;13.410;2023-02-10T04:29:08;102500.78;;;0.71;100.00
52625;BME280;38519;52.540;13.410;2023-02-10T04:31:33;102486.47;;;0.73;100.00
52625;BME280;38519;52.540;13.410;2023-02-10T04:33:59;102503.03;;;0.75;100.00
52625;BME280;38519;52.540;13.410;2023-02-10T04:36:24;102513.63;;;0.71;100.00
52625;BME280;38519;52.540;13.410;2023-02-10T04:38:49;102508.63;;;0.78;100.00
52625;BME280;38519;52.540;13.410;2023-02-10T04:41:14;102520.56;;;0.78;100.00
52625;BME280;38519;52.540;13.410;2023-02-10T04:43:40;102510.09;;;0.70;100.00
52625;BME280;38519;52.540;13.410;2023-02-10T04:46:05;102510.97;;;0.77;100.00
52625;BME280;38519;52.540;13.410;2023-02-10T04:48:30;102511.13;;;0.84;100.00
52625;BME280;38519;52.540;13.410;2023-02-10T04:50:56;102515.13;;;0.82;100.00
52625;BME280;38519;52.540;13.410;2023-02-10T04:53:21;102509.97;;;0.82;100.00
52625;BME280;38519;52.540;13.410;2023-02-10T04:55:47;102509.81;;;0.93;100.00
52625;BME280;38519;52.540;13.410;2023-02-10T04:58:12;102506.22;;;0.85;100.00
52625;BME280;38519;52.540;13.410;2023-02-10T05:00:37;102504.19;;;0.96;100.00
52625;BME280;38519;52.540;13.410;2023-02-10T05:03:02;102511.69;;;0.94;100.00
52625;BME280;38519;52.540;13.410;2023-02-10T05:05:28;102509.66;;;0.92;100.00
52625;BME280;38519;52.540;13.410;2023-02-10T05:07:53;102512.28;;;0.86;100.00
52625;BME280;38519;52.540;13.410;2023-02-10T05:10:19;102513.19;;;0.86;100.00
52625;BME280;38519;52.540;13.410;2023-02-10T05:12:44;102521.44;;;0.84;100.00
52625;BME280;38519;52.540;13.410;2023-02-10T05:15:10;102514.38;;;0.88;100.00
52625;BME280;38519;52.540;13.410;2023-02-10T05:17:38;102525.34;;;0.87;100.00
52625;BME280;38519;52.540;13.410;2023-02-10T05:20:03;102522.06;;;0.88;100.00
52625;BME280;38519;52.540;13.410;2023-02-10T05:22:28;102519.94;;;0.92;100.00
52625;BME280;38519;52.540;13.410;2023-02-10T05:24:57;102524.13;;;0.91;100.00
52625;BME280;38519;52.540;13.410;2023-02-10T05:27:23;102516.84;;;0.94;100.00
52625;BME280;38519;52.540;13.410;2023-02-10T05:29:48;102516.94;;;0.88;100.00
52625;BME280;38519;52.540;13.410;2023-02-10T05:32:14;102527.75;;;0.80;100.00
52625;BME280;38519;52.540;13.410;2023-02-10T05:34:39;102519.34;;;0.81;100.00
52625;BME280;38519;52.540;13.410;2023-02-10T05:37:04;102526.91;;;0.74;100.00
52625;BME280;38519;52.540;13.410;2023-02-10T05:39:30;102518.13;;;0.66;100.00
52625;BME280;38519;52.540;13.410;2023-02-10T05:41:56;102521.47;;;0.60;100.00
52625;BME280;38519;52.540;13.410;2023-02-10T05:44:22;102524.59;;;0.51;100.00
52625;BME280;38519;52.540;13.410;2023-02-10T05:46:48;102532.09;;;0.50;100.00
52625;BME280;38519;52.540;13.410;2023-02-10T05:49:13;102534.94;;;0.46;100.00
52625;BME280;38519;52.540;13.410;2023-02-10T05:51:39;102520.72;;;0.42;100.00
52625;BME280;38519;52.540;13.410;2023-02-10T05:54:04;102525.44;;;0.39;100.00
52625;BME280;38519;52.540;13.410;2023-02-10T05:56:30;102529.13;;;0.41;100.00
52625;BME280;38519;52.540;13.410;2023-02-10T05:58:55;102521.88;;;0.44;100.00
52625;BME280;38519;52.540;13.410;2023-02-10T06:01:20;102520.22;;;0.45;100.00
52625;BME280;38519;52.540;13.410;2023-02-10T06:03:46;102517.19;;;0.42;100.00
52625;BME280;38519;52.540;13.410;2023-02-10T06:06:11;102531.78;;;0.35;100.00
52625;BME280;38519;52.540;13.410;2023-02-10T06:08:36;102530.34;;;0.38;100.00
52625;BME280;38519;52.540;13.410;2023-02-10T06:11:01;102536.91;;;0.35;100.00
52625;BME280;38519;52.540;13.410;2023-02-10T06:13:27;102534.78;;;0.39;100.00
52625;BME280;38519;52.540;13.410;2023-02-10T06:15:52;102528.91;;;0.40;100.00
52625;BME280;38519;52.540;13.410;2023-02-10T06:18:18;102535.94;;;0.41;100.00
52625;BME280;38519;52.540;13.410;2023-02-10T06:20:46;102546.00;;;0.39;100.00
52625;BME280;38519;52.540;13.410;2023-02-10T06:23:12;102548.34;;;0.38;100.00
52625;BME280;38519;52.540;13.410;2023-02-10T06:25:37;102549.78;;;0.35;100.00
52625;BME280;38519;52.540;13.410;2023-02-10T06:28:02;102552.56;;;0.37;100.00
52625;BME280;38519;52.540;13.410;2023-02-10T06:30:28;102556.31;;;0.33;100.00
52625;BME280;38519;52.540;13.410;2023-02-10T06:32:53;102554.41;;;0.38;100.00
52625;BME280;38519;52.540;13.410;2023-02-10T06:35:19;102561.41;;;0.39;100.00
52625;BME280;38519;52.540;13.410;2023-02-10T06:37:44;102559.81;;;0.34;100.00
52625;BME280;38519;52.540;13.410;2023-02-10T06:40:09;102562.53;;;0.41;100.00
52625;BME280;38519;52.540;13.410;2023-02-10T06:42:35;102561.13;;;0.43;100.00
52625;BME280;38519;52.540;13.410;2023-02-10T06:45:00;102560.38;;;0.50;100.00
52625;BME280;38519;52.540;13.410;2023-02-10T06:47:25;102564.56;;;0.49;100.00
52625;BME280;38519;52.540;13.410;2023-02-10T06:49:51;102564.09;;;0.52;100.00
52625;BME280;38519;52.540;13.410;2023-02-10T06:52:17;102562.66;;;0.54;100.00
52625;BME280;38519;52.540;13.410;2023-02-10T06:54:42;102569.66;;;0.55;100.00
52625;BME280;38519;52.540;13.410;2023-02-10T06:57:07;102575.72;;;0.56;100.00
52625;BME280;38519;52.540;13.410;2023-02-10T06:59:33;102583.41;;;0.61;100.00
52625;BME280;38519;52.540;13.410;2023-02-10T07:01:58;102582.22;;;0.59;100.00
52625;BME280;38519;52.540;13.410;2023-02-10T07:04:28;102587.53;;;0.66;100.00
52625;BME280;38519;52.540;13.410;2023-02-10T07:06:54;102583.28;;;0.72;100.00
52625;BME280;38519;52.540;13.410;2023-02-10T07:09:19;102587.41;;;0.78;100.00
52625;BME280;38519;52.540;13.410;2023-02-10T07:11:44;102571.69;;;0.82;100.00
52625;BME280;38519;52.540;13.410;2023-02-10T07:14:10;102590.13;;;0.85;100.00
52625;BME280;38519;52.540;13.410;2023-02-10T07:16:35;102582.84;;;0.88;100.00
52625;BME280;38519;52.540;13.410;2023-02-10T07:19:00;102584.94;;;0.90;100.00
52625;BME280;38519;52.540;13.410;2023-02-10T07:21:25;102588.16;;;0.95;100.00
52625;BME280;38519;52.540;13.410;2023-02-10T07:23:51;102597.44;;;1.00;100.00
52625;BME280;38519;52.540;13.410;2023-02-10T07:26:16;102602.72;;;1.07;100.00
52625;BME280;38519;52.540;13.410;2023-02-10T07:28:43;102609.97;;;1.10;100.00
52625;BME280;38519;52.540;13.410;2023-02-10T07:31:08;102614.19;;;1.09;100.00
52625;BME280;38519;52.540;13.410;2023-02-10T07:33:33;102614.19;;;1.09;100.00
52625;BME280;38519;52.540;13.410;2023-02-10T07:35:59;102606.16;;;1.14;100.00
52625;BME280;38519;52.540;13.410;2023-02-10T07:38:25;102610.97;;;1.23;100.00
52625;BME280;38519;52.540;13.410;2023-02-10T07:40:51;102610.53;;;1.20;100.00
52625;BME280;38519;52.540;13.410;2023-02-10T07:43:16;102611.91;;;1.24;100.00
52625;BME280;38519;52.540;13.410;2023-02-10T07:45:41;102611.59;;;1.28;100.00
52625;BME280;38519;52.540;13.410;2023-02-10T07:48:06;102615.13;;;1.29;100.00
52625;BME280;38519;52.540;13.410;2023-02-10T07:50:32;102606.19;;;1.32;100.00
52625;BME280;38519;52.540;13.410;2023-02-10T07:52:57;102616.50;;;1.32;100.00
52625;BME280;38519;52.540;13.410;2023-02-10T07:55:22;102622.97;;;1.36;100.00
52625;BME280;38519;52.540;13.410;2023-02-10T07:57:48;102622.94;;;1.41;100.00
52625;BME280;38519;52.540;13.410;2023-02-10T08:00:13;102625.06;;;1.38;100.00
52625;BME280;38519;52.540;13.410;2023-02-10T08:02:39;102620.34;;;1.41;100.00
52625;BME280;38519;52.540;13.410;2023-02-10T08:05:05;102621.19;;;1.48;100.00
52625;BME280;38519;52.540;13.410;2023-02-10T08:07:31;102623.25;;;1.50;100.00
52625;BME280;38519;52.540;13.410;2023-02-10T08:09:56;102639.78;;;1.58;100.00
52625;BME280;38519;52.540;13.410;2023-02-10T08:12:21;102632.72;;;1.62;100.00
52625;BME280;38519;52.540;13.410;2023-02-10T08:14:47;102631.06;;;1.63;100.00
52625;BME280;38519;52.540;13.410;2023-02-10T08:17:12;102633.13;;;1.66;100.00
52625;BME280;38519;52.540;13.410;2023-02-10T08:19:37;102642.06;;;1.80;100.00
52625;BME280;38519;52.540;13.410;2023-02-10T08:22:05;102647.22;;;1.80;100.00
52625;BME280;38519;52.540;13.410;2023-02-10T08:24:31;102646.19;;;1.86;100.00
52625;BME280;38519;52.540;13.410;2023-02-10T08:26:56;102650.91;;;1.82;100.00
52625;BME280;38519;52.540;13.410;2023-02-10T08:29:22;102652.47;;;1.88;100.00
52625;BME280;38519;52.540;13.410;2023-02-10T08:31:50;102659.91;;;1.92;100.00
52625;BME280;38519;52.540;13.410;2023-02-10T08:34:16;102657.78;;;1.95;100.00
52625;BME280;38519;52.540;13.410;2023-02-10T08:36:42;102656.97;;;2.02;100.00
52625;BME280;38519;52.540;13.410;2023-02-10T08:39:07;102656.38;;;2.10;100.00
52625;BME280;38519;52.540;13.410;2023-02-10T08:41:33;102655.72;;;2.05;100.00
52625;BME280;38519;52.540;13.410;2023-02-10T08:43:58;102660.28;;;2.13;100.00
52625;BME280;38519;52.540;13.410;2023-02-10T08:46:23;102662.88;;;2.13;100.00
52625;BME280;38519;52.540;13.410;2023-02-10T08:48:48;102664.88;;;2.22;100.00
52625;BME280;38519;52.540;13.410;2023-02-10T08:51:15;102669.72;;;2.26;100.00
52625;BME280;38519;52.540;13.410;2023-02-10T08:53:40;102655.19;;;2.39;100.00
52625;BME280;38519;52.540;13.410;2023-02-10T08:56:07;102663.50;;;2.49;100.00
52625;BME280;38519;52.540;13.410;2023-02-10T08:58:34;102665.75;;;2.53;100.00
52625;BME280;38519;52.540;13.410;2023-02-10T09:01:01;102659.66;;;2.53;100.00
52625;BME280;38519;52.540;13.410;2023-02-10T09:03:27;102667.31;;;2.59;100.00
52625;BME280;38519;52.540;13.410;2023-02-10T09:05:53;102667.34;;;2.71;100.00
52625;BME280;38519;52.540;13.410;2023-02-10T09:08:18;102665.06;;;2.67;100.00
52625;BME280;38519;52.540;13.410;2023-02-10T09:10:44;102664.44;;;2.76;100.00
52625;BME280;38519;52.540;13.410;2023-02-10T09:13:11;102655.44;;;2.79;100.00
52625;BME280;38519;52.540;13.410;2023-02-10T09:15:37;102665.75;;;2.79;100.00
52625;BME280;38519;52.540;13.410;2023-02-10T09:18:03;102663.94;;;2.78;100.00
52625;BME280;38519;52.540;13.410;2023-02-10T09:20:28;102665.97;;;2.81;100.00
52625;BME280;38519;52.540;13.410;2023-02-10T09:22:53;102671.66;;;2.78;100.00
52625;BME280;38519;52.540;13.410;2023-02-10T09:25:19;102676.63;;;2.77;100.00
52625;BME280;38519;52.540;13.410;2023-02-10T09:27:44;102679.06;;;2.69;100.00
52625;BME280;38519;52.540;13.410;2023-02-10T09:30:10;102680.72;;;2.69;100.00
52625;BME280;38519;52.540;13.410;2023-02-10T09:32:35;102676.19;;;2.73;100.00
52625;BME280;38519;52.540;13.410;2023-02-10T09:35:00;102687.25;;;2.85;100.00
52625;BME280;38519;52.540;13.410;2023-02-10T09:37:27;102689.53;;;2.89;100.00
52625;BME280;38519;52.540;13.410;2023-02-10T09:39:52;102680.03;;;2.96;100.00
52625;BME280;38519;52.540;13.410;2023-02-10T09:42:29;102694.28;;;2.99;100.00
52625;BME280;38519;52.540;13.410;2023-02-10T09:45:11;102691.91;;;3.01;100.00
52625;BME280;38519;52.540;13.410;2023-02-10T09:47:48;102694.28;;;3.12;100.00
52625;BME280;38519;52.540;13.410;2023-02-10T09:55:33;102700.69;;;3.21;100.00
52625;BME280;38519;52.540;13.410;2023-02-10T09:58:00;102705.28;;;3.37;100.00
52625;BME280;38519;52.540;13.410;2023-02-10T10:00:38;102710.38;;;3.30;100.00
52625;BME280;38519;52.540;13.410;2023-02-10T10:03:05;102712.09;;;3.49;100.00
52625;BME280;38519;52.540;13.410;2023-02-10T10:08:09;102711.38;;;3.50;100.00
52625;BME280;38519;52.540;13.410;2023-02-10T10:10:39;102714.78;;;3.43;100.00
52625;BME280;38519;52.540;13.410;2023-02-10T10:13:14;102704.41;;;3.56;100.00
52625;BME280;38519;52.540;13.410;2023-02-10T10:15:42;102713.41;;;3.65;100.00
52625;BME280;38519;52.540;13.410;2023-02-10T10:21:13;102714.72;;;3.69;100.00
52625;BME280;38519;52.540;13.410;2023-02-10T10:31:35;102705.97;;;3.94;100.00
52625;BME280;38519;52.540;13.410;2023-02-10T10:36:41;102719.00;;;4.01;100.00
52625;BME280;38519;52.540;13.410;2023-02-10T10:39:13;102713.69;;;4.07;100.00
52625;BME280;38519;52.540;13.410;2023-02-10T10:41:39;102716.09;;;3.93;100.00
52625;BME280;38519;52.540;13.410;2023-02-10T10:44:05;102712.56;;;4.05;100.00
52625;BME280;38519;52.540;13.410;2023-02-10T10:46:33;102709.38;;;4.00;100.00
52625;BME280;38519;52.540;13.410;2023-02-10T10:49:00;102711.03;;;4.20;100.00
52625;BME280;38519;52.540;13.410;2023-02-10T10:51:25;102705.47;;;4.17;100.00
52625;BME280;38519;52.540;13.410;2023-02-10T10:53:52;102712.16;;;4.22;100.00
52625;BME280;38519;52.540;13.410;2023-02-10T10:56:24;102703.75;;;4.30;100.00
52625;BME280;38519;52.540;13.410;2023-02-10T10:58:55;102701.22;;;4.37;100.00
52625;BME280;38519;52.540;13.410;2023-02-10T11:01:30;102699.03;;;4.41;100.00
52625;BME280;38519;52.540;13.410;2023-02-10T11:04:03;102694.53;;;4.32;100.00
52625;BME280;38519;52.540;13.410;2023-02-10T11:06:31;102694.91;;;4.15;100.00
52625;BME280;38519;52.540;13.410;2023-02-10T11:09:00;102678.66;;;4.36;100.00
52625;BME280;38519;52.540;13.410;2023-02-10T11:13:59;102681.53;;;4.25;100.00
52625;BME280;38519;52.540;13.410;2023-02-10T11:16:25;102679.59;;;4.17;100.00
52625;BME280;38519;52.540;13.410;2023-02-10T11:18:53;102670.22;;;4.17;100.00
52625;BME280;38519;52.540;13.410;2023-02-10T11:21:19;102669.16;;;4.23;100.00
52625;BME280;38519;52.540;13.410;2023-02-10T11:23:51;102664.50;;;4.20;100.00
52625;BME280;38519;52.540;13.410;2023-02-10T11:26:19;102667.34;;;4.29;100.00
52625;BME280;38519;52.540;13.410;2023-02-10T11:28:44;102659.66;;;4.16;100.00
52625;BME280;38519;52.540;13.410;2023-02-10T11:33:57;102672.78;;;4.17;100.00
52625;BME280;38519;52.540;13.410;2023-02-10T11:36:37;102673.38;;;4.22;100.00
52625;BME280;38519;52.540;13.410;2023-02-10T11:39:14;102674.91;;;4.27;100.00
52625;BME280;38519;52.540;13.410;2023-02-10T11:41:41;102669.13;;;4.43;100.00
52625;BME280;38519;52.540;13.410;2023-02-10T11:47:03;102668.34;;;4.64;100.00
52625;BME280;38519;52.540;13.410;2023-02-10T11:49:29;102655.50;;;4.78;100.00
52625;BME280;38519;52.540;13.410;2023-02-10T11:51:59;102658.28;;;4.80;100.00
52625;BME280;38519;52.540;13.410;2023-02-10T11:54:25;102662.78;;;4.88;100.00
52625;BME280;38519;52.540;13.410;2023-02-10T12:07:41;102655.66;;;5.00;100.00
52625;BME280;38519;52.540;13.410;2023-02-10T12:15:21;102654.03;;;5.07;100.00
52625;BME280;38519;52.540;13.410;2023-02-10T12:20:24;102649.25;;;5.10;100.00
52625;BME280;38519;52.540;13.410;2023-02-10T12:25:52;102646.22;;;5.42;100.00
52625;BME280;38519;52.540;13.410;2023-02-10T12:28:25;102648.78;;;5.35;100.00
52625;BME280;38519;52.540;13.410;2023-02-10T12:35:55;102640.34;;;5.64;100.00
52625;BME280;38519;52.540;13.410;2023-02-10T12:53:39;102631.00;;;5.23;100.00
52625;BME280;38519;52.540;13.410;2023-02-10T12:56:11;102628.06;;;5.35;100.00
52625;BME280;38519;52.540;13.410;2023-02-10T12:58:41;102633.66;;;5.45;100.00
52625;BME280;38519;52.540;13.410;2023-02-10T13:03:34;102631.44;;;5.48;100.00
52625;BME280;38519;52.540;13.410;2023-02-10T13:08:41;102630.72;;;5.49;100.00
52625;BME280;38519;52.540;13.410;2023-02-10T13:11:17;102628.69;;;5.61;100.00
52625;BME280;38519;52.540;13.410;2023-02-10T13:13:45;102633.34;;;5.71;100.00
52625;BME280;38519;52.540;13.410;2023-02-10T13:16:18;102622.78;;;5.69;100.00
52625;BME280;38519;52.540;13.410;2023-02-10T13:28:48;102617.22;;;5.66;100.00
52625;BME280;38519;52.540;13.410;2023-02-10T13:36:25;102622.56;;;5.53;100.00
52625;BME280;38519;52.540;13.410;2023-02-10T13:41:51;102621.25;;;5.50;100.00
52625;BME280;38519;52.540;13.410;2023-02-10T13:44:18;102620.88;;;5.39;100.00
52625;BME280;38519;52.540;13.410;2023-02-10T13:46:46;102628.84;;;5.48;100.00
52625;BME280;38519;52.540;13.410;2023-02-10T13:49:16;102620.53;;;5.58;100.00
52625;BME280;38519;52.540;13.410;2023-02-10T13:51:42;102615.34;;;5.58;100.00
52625;BME280;38519;52.540;13.410;2023-02-10T13:56:54;102606.44;;;5.48;100.00
52625;BME280;38519;52.540;13.410;2023-02-10T14:06:45;102614.97;;;5.55;100.00
52625;BME280;38519;52.540;13.410;2023-02-10T14:11:45;102598.16;;;5.65;100.00
52625;BME280;38519;52.540;13.410;2023-02-10T14:16:46;102592.06;;;5.72;100.00
52625;BME280;38519;52.540;13.410;2023-02-10T14:19:28;102593.75;;;5.72;100.00
52625;BME280;38519;52.540;13.410;2023-02-10T14:21:55;102591.53;;;5.75;100.00
52625;BME280;38519;52.540;13.410;2023-02-10T14:24:22;102591.69;;;5.69;100.00
52625;BME280;38519;52.540;13.410;2023-02-10T14:26:48;102592.59;;;5.70;100.00
52625;BME280;38519;52.540;13.410;2023-02-10T14:29:14;102590.75;;;5.76;100.00
52625;BME280;38519;52.540;13.410;2023-02-10T14:31:41;102589.66;;;5.74;100.00
52625;BME280;38519;52.540;13.410;2023-02-10T14:34:26;102579.44;;;5.68;100.00
52625;BME280;38519;52.540;13.410;2023-02-10T14:37:02;102579.09;;;5.65;100.00
52625;BME280;38519;52.540;13.410;2023-02-10T14:39:28;102572.44;;;5.67;100.00
52625;BME280;38519;52.540;13.410;2023-02-10T14:41:54;102577.44;;;5.65;100.00
52625;BME280;38519;52.540;13.410;2023-02-10T14:46:47;102574.09;;;5.74;100.00
52625;BME280;38519;52.540;13.410;2023-02-10T14:49:13;102574.28;;;5.75;100.00
52625;BME280;38519;52.540;13.410;2023-02-10T14:51:43;102584.47;;;5.74;100.00
52625;BME280;38519;52.540;13.410;2023-02-10T14:56:50;102575.00;;;5.60;100.00
52625;BME280;38519;52.540;13.410;2023-02-10T14:59:23;102572.22;;;5.58;100.00
52625;BME280;38519;52.540;13.410;2023-02-10T15:01:50;102571.13;;;5.49;100.00
52625;BME280;38519;52.540;13.410;2023-02-10T15:04:16;102560.53;;;5.33;100.00
52625;BME280;38519;52.540;13.410;2023-02-10T15:06:44;102573.06;;;5.23;100.00